createdAt,value
2017-12-08T00:00:19.634Z,96750.80
2017-12-08T00:02:47.146Z,96743.99
2017-12-08T00:05:14.705Z,96747.33
2017-12-08T00:07:42.406Z,96748.72
2017-12-08T00:10:10.188Z,96755.75
2017-12-08T00:12:37.805Z,96752.81
2017-12-08T00:15:05.309Z,96751.98
2017-12-08T00:17:32.815Z,96758.00
2017-12-08T00:20:00.571Z,96745.14
2017-12-08T00:22:28.135Z,96735.81
2017-12-08T00:24:55.677Z,96741.67
2017-12-08T00:27:23.434Z,96738.13
2017-12-08T00:29:52.353Z,96735.66
2017-12-08T00:32:20.006Z,96743.81
2017-12-08T00:34:47.565Z,96726.55
2017-12-08T00:37:15.074Z,96730.52
2017-12-08T00:39:42.615Z,96721.83
2017-12-08T00:42:10.583Z,96730.58
2017-12-08T00:44:39.046Z,96734.41
2017-12-08T00:47:06.695Z,96739.16
2017-12-08T00:49:35.187Z,96731.72
2017-12-08T00:52:03.050Z,96718.06
2017-12-08T00:54:30.600Z,96720.36
2017-12-08T00:56:58.157Z,96716.66
2017-12-08T00:59:25.663Z,96702.77
2017-12-08T01:01:53.173Z,96694.22
2017-12-08T01:04:20.938Z,96670.47
2017-12-08T01:06:48.442Z,96673.00
2017-12-08T01:09:15.958Z,96680.32
2017-12-08T01:11:43.717Z,96691.47
2017-12-08T01:14:11.277Z,96699.42
2017-12-08T01:16:38.778Z,96701.82
2017-12-08T01:19:06.704Z,96712.78
2017-12-08T01:21:34.219Z,96717.38
2017-12-08T01:24:01.723Z,96709.20
2017-12-08T01:26:29.294Z,96725.79
2017-12-08T01:28:56.801Z,96726.33
2017-12-08T01:31:24.582Z,96729.47
2017-12-08T01:33:52.289Z,96730.40
2017-12-08T01:36:19.801Z,96720.17
2017-12-08T01:38:47.308Z,96716.78
2017-12-08T01:41:15.143Z,96711.36
2017-12-08T01:43:42.646Z,96713.71
2017-12-08T01:46:10.158Z,96703.77
2017-12-08T01:48:37.919Z,96701.27
2017-12-08T01:51:05.483Z,96706.44
2017-12-08T01:53:32.990Z,96698.55
2017-12-08T01:56:00.543Z,96704.97
2017-12-08T01:58:28.050Z,96714.42
2017-12-08T02:00:55.555Z,96698.76
2017-12-08T02:03:23.278Z,96706.92
2017-12-08T02:05:50.843Z,96714.80
2017-12-08T02:08:18.352Z,96708.00
2017-12-08T02:10:46.133Z,96699.44
2017-12-08T02:13:13.650Z,96706.59
2017-12-08T02:15:41.175Z,96703.67
2017-12-08T02:18:09.020Z,96698.73
2017-12-08T02:20:36.601Z,96704.05
2017-12-08T02:23:04.109Z,96697.87
2017-12-08T02:25:31.653Z,96691.75
2017-12-08T02:27:59.193Z,96694.16
2017-12-08T02:30:26.748Z,96696.34
2017-12-08T02:32:54.309Z,96701.63
2017-12-08T02:35:21.853Z,96689.53
2017-12-08T02:37:49.356Z,96699.31
2017-12-08T02:40:17.310Z,96693.09
2017-12-08T02:42:44.837Z,96696.62
2017-12-08T02:45:13.012Z,96697.10
2017-12-08T02:47:40.673Z,96695.37
2017-12-08T02:50:08.232Z,96692.80
2017-12-08T02:52:35.738Z,96710.78
2017-12-08T02:55:03.426Z,96710.20
2017-12-08T02:57:30.933Z,96701.23
2017-12-08T02:59:58.698Z,96706.45
2017-12-08T03:02:26.437Z,96700.94
2017-12-08T03:04:54.011Z,96704.17
2017-12-08T03:07:21.556Z,96706.81
2017-12-08T03:09:49.395Z,96701.53
2017-12-08T03:12:16.903Z,96707.73
2017-12-08T03:14:44.414Z,96710.97
2017-12-08T03:17:12.201Z,96714.91
2017-12-08T03:19:39.759Z,96715.53
2017-12-08T03:22:07.266Z,96718.38
2017-12-08T03:24:34.958Z,96714.13
2017-12-08T03:27:02.466Z,96716.27
2017-12-08T03:29:29.996Z,96712.50
2017-12-08T03:31:57.571Z,96701.34
2017-12-08T03:34:25.114Z,96703.76
2017-12-08T03:36:52.618Z,96702.45
2017-12-08T03:39:21.520Z,96710.63
2017-12-08T03:41:50.574Z,96711.84
2017-12-08T03:44:18.117Z,96722.71
2017-12-08T03:46:45.879Z,96728.28
2017-12-08T03:49:13.382Z,96720.81
2017-12-08T03:51:40.891Z,96717.89
2017-12-08T03:54:08.839Z,96711.22
2017-12-08T03:56:36.350Z,96730.63
2017-12-08T03:59:03.879Z,96729.81
2017-12-08T04:01:31.425Z,96733.48
2017-12-08T04:03:58.926Z,96740.50
2017-12-08T04:06:26.436Z,96746.03
2017-12-08T04:08:53.995Z,96738.92
2017-12-08T04:11:21.505Z,96739.50
2017-12-08T04:13:49.022Z,96738.31
2017-12-08T04:16:16.897Z,96739.65
2017-12-08T04:18:44.398Z,96733.28
2017-12-08T04:21:11.898Z,96747.64
2017-12-08T04:23:39.646Z,96743.95
2017-12-08T04:26:07.162Z,96767.85
2017-12-08T04:28:34.674Z,96776.36
2017-12-08T04:31:02.471Z,96769.50
2017-12-08T04:33:30.015Z,96775.61
2017-12-08T04:35:57.528Z,96779.62
2017-12-08T04:40:51.872Z,96769.41
2017-12-08T04:43:19.377Z,96764.48
2017-12-08T04:45:47.194Z,96759.88
2017-12-08T04:48:14.706Z,96766.41
2017-12-08T04:50:42.224Z,96754.14
2017-12-08T04:53:09.762Z,96755.97
2017-12-08T04:55:37.331Z,96760.52
2017-12-08T04:58:04.889Z,96758.14
2017-12-08T05:00:32.444Z,96760.73
2017-12-08T05:02:59.954Z,96757.08
2017-12-08T05:05:27.463Z,96759.39
2017-12-08T05:07:55.018Z,96760.66
2017-12-08T05:10:22.542Z,96762.72
2017-12-08T05:12:50.058Z,96760.27
2017-12-08T05:15:17.802Z,96768.02
2017-12-08T05:17:45.378Z,96768.09
2017-12-08T05:20:12.941Z,96763.23
2017-12-08T05:22:40.658Z,96763.59
2017-12-08T05:25:08.169Z,96766.05
2017-12-08T05:27:35.683Z,96763.23
2017-12-08T05:30:03.642Z,96755.66
2017-12-08T05:32:31.158Z,96758.91
2017-12-08T05:34:58.658Z,96741.31
2017-12-08T05:37:26.530Z,96744.33
2017-12-08T05:39:54.034Z,96747.36
2017-12-08T05:42:21.542Z,96742.58
2017-12-08T05:44:49.435Z,96742.20
2017-12-08T05:47:16.992Z,96740.14
2017-12-08T05:49:44.502Z,96746.05
2017-12-08T05:52:12.519Z,96758.90
2017-12-08T05:54:40.030Z,96754.48
2017-12-08T05:57:07.562Z,96769.19
2017-12-08T05:59:35.299Z,96771.48
2017-12-08T06:02:02.802Z,96777.33
2017-12-08T06:04:30.318Z,96770.66
2017-12-08T06:06:57.875Z,96775.33
2017-12-08T06:09:25.434Z,96773.12
2017-12-08T06:11:52.938Z,96785.84
2017-12-08T06:14:20.858Z,96792.13
2017-12-08T06:16:48.419Z,96795.38
2017-12-08T06:19:15.974Z,96799.80
2017-12-08T06:21:43.734Z,96803.25
2017-12-08T06:24:11.235Z,96805.76
2017-12-08T06:26:38.750Z,96815.60
2017-12-08T06:29:06.502Z,96808.95
2017-12-08T06:31:34.010Z,96808.42
2017-12-08T06:34:01.536Z,96819.48
2017-12-08T06:36:29.066Z,96817.59
2017-12-08T06:38:56.574Z,96810.62
2017-12-08T06:41:24.091Z,96806.81
2017-12-08T06:43:51.670Z,96815.98
2017-12-08T06:46:19.182Z,96805.99
2017-12-08T06:48:46.689Z,96809.75
2017-12-08T06:51:14.351Z,96814.95
2017-12-08T06:53:41.909Z,96816.13
2017-12-08T06:56:09.420Z,96803.53
2017-12-08T06:58:37.130Z,96801.42
2017-12-08T07:01:04.638Z,96808.22
2017-12-08T07:03:32.155Z,96808.13
2017-12-08T07:05:59.906Z,96817.67
2017-12-08T07:08:27.410Z,96815.58
2017-12-08T07:10:54.923Z,96806.58
2017-12-08T07:13:22.666Z,96812.39
2017-12-08T07:15:50.175Z,96815.23
2017-12-08T07:18:17.691Z,96812.50
2017-12-08T07:20:45.472Z,96805.63
2017-12-08T07:23:13.026Z,96815.05
2017-12-08T07:25:40.586Z,96818.83
2017-12-08T07:28:08.218Z,96820.23
2017-12-08T07:30:35.736Z,96821.78
2017-12-08T07:33:03.268Z,96836.38
2017-12-08T07:35:30.854Z,96830.09
2017-12-08T07:37:58.380Z,96824.55
2017-12-08T07:40:25.895Z,96823.95
2017-12-08T07:42:53.550Z,96833.68
2017-12-08T07:45:21.572Z,96834.09
2017-12-08T07:47:49.074Z,96832.80
2017-12-08T07:50:16.770Z,96832.42
2017-12-08T07:52:44.290Z,96830.98
2017-12-08T07:55:11.798Z,96834.84
2017-12-08T07:57:39.646Z,96832.16
2017-12-08T08:00:07.158Z,96840.26
2017-12-08T08:02:34.663Z,96841.26
2017-12-08T08:05:02.327Z,96839.80
2017-12-08T08:07:29.848Z,96842.73
2017-12-08T08:09:57.364Z,96838.97
2017-12-08T08:12:25.070Z,96844.13
2017-12-08T08:14:52.577Z,96846.27
2017-12-08T08:17:20.086Z,96853.58
2017-12-08T08:19:49.913Z,96852.58
2017-12-08T08:22:18.130Z,96857.08
2017-12-08T08:24:46.099Z,96856.06
2017-12-08T08:27:13.996Z,96860.06
2017-12-08T08:29:41.556Z,96863.46
2017-12-08T08:32:09.698Z,96865.11
2017-12-08T08:34:38.076Z,96870.64
2017-12-08T08:37:05.599Z,96872.48
2017-12-08T08:39:33.549Z,96874.41
2017-12-08T08:42:01.485Z,96874.19
2017-12-08T08:44:30.275Z,96868.89
2017-12-08T08:46:57.868Z,96871.50
2017-12-08T08:49:26.402Z,96866.00
2017-12-08T08:51:54.286Z,96869.11
2017-12-08T08:54:22.133Z,96870.66
2017-12-08T08:56:49.837Z,96875.74
2017-12-08T08:59:17.348Z,96870.50
2017-12-08T09:01:44.864Z,96883.19
2017-12-08T09:04:12.551Z,96896.71
2017-12-08T09:06:40.144Z,96907.75
2017-12-08T09:09:08.805Z,96915.23
2017-12-08T09:11:36.685Z,96912.01
2017-12-08T09:14:04.348Z,96921.99
2017-12-08T09:16:31.996Z,96917.62
2017-12-08T09:18:59.783Z,96917.14
2017-12-08T09:21:27.338Z,96910.30
2017-12-08T09:23:54.883Z,96911.25
2017-12-08T09:26:22.579Z,96914.50
2017-12-08T09:28:50.208Z,96917.56
2017-12-08T09:31:19.738Z,96911.07
2017-12-08T09:33:47.570Z,96916.16
2017-12-08T09:36:16.086Z,96916.63
2017-12-08T09:38:43.830Z,96927.87
2017-12-08T09:41:12.291Z,96923.04
2017-12-08T09:43:39.807Z,96925.85
2017-12-08T09:46:07.319Z,96914.41
2017-12-08T09:48:34.884Z,96924.72
2017-12-08T09:51:02.394Z,96930.21
2017-12-08T09:53:29.953Z,96925.77
2017-12-08T09:55:57.665Z,96918.52
2017-12-08T09:58:25.227Z,96914.44
2017-12-08T10:00:53.700Z,96910.34
2017-12-08T10:03:21.342Z,96903.35
2017-12-08T10:05:48.851Z,96906.32
2017-12-08T10:08:16.357Z,96902.89
2017-12-08T10:10:43.915Z,96895.47
2017-12-08T10:13:11.422Z,96895.02
2017-12-08T10:15:38.935Z,96894.61
2017-12-08T10:18:06.503Z,96891.97
2017-12-08T10:20:34.011Z,96882.26
2017-12-08T10:23:01.531Z,96867.23
2017-12-08T10:25:29.092Z,96859.96
2017-12-08T10:27:56.598Z,96854.13
2017-12-08T10:30:24.107Z,96853.14
2017-12-08T10:32:51.666Z,96852.33
2017-12-08T10:35:19.170Z,96847.31
2017-12-08T10:37:46.707Z,96836.80
2017-12-08T10:40:14.422Z,96827.06
2017-12-08T10:42:41.942Z,96826.77
2017-12-08T10:45:09.461Z,96818.77
2017-12-08T10:47:37.225Z,96811.38
2017-12-08T10:50:04.733Z,96823.28
2017-12-08T10:52:32.259Z,96820.16
2017-12-08T10:54:59.950Z,96820.19
2017-12-08T10:57:27.466Z,96812.05
2017-12-08T10:59:55.020Z,96802.73
2017-12-08T11:02:22.729Z,96795.92
2017-12-08T11:04:50.252Z,96791.48
2017-12-08T11:07:17.802Z,96796.57
2017-12-08T11:09:45.546Z,96783.39
2017-12-08T11:12:13.060Z,96776.08
2017-12-08T11:14:40.570Z,96786.56
2017-12-08T11:17:08.140Z,96780.52
2017-12-08T11:19:35.651Z,96784.92
2017-12-08T11:22:03.162Z,96770.98
2017-12-08T11:24:30.713Z,96767.70
2017-12-08T11:26:58.218Z,96756.48
2017-12-08T11:29:25.728Z,96742.94
2017-12-08T11:31:53.271Z,96740.28
2017-12-08T11:34:20.791Z,96736.59
2017-12-08T11:36:48.321Z,96733.70
2017-12-08T11:39:16.046Z,96726.11
2017-12-08T11:41:43.567Z,96721.64
2017-12-08T11:44:11.079Z,96717.97
2017-12-08T11:46:39.052Z,96705.40
2017-12-08T11:49:06.856Z,96705.11
2017-12-08T11:51:34.374Z,96710.55
2017-12-08T11:54:02.343Z,96710.09
2017-12-08T11:56:29.977Z,96718.97
2017-12-08T11:58:57.484Z,96709.53
2017-12-08T12:01:25.225Z,96709.86
2017-12-08T12:03:52.730Z,96703.92
2017-12-08T12:06:20.247Z,96714.44
2017-12-08T12:08:47.982Z,96704.04
2017-12-08T12:11:15.502Z,96716.45
2017-12-08T12:13:43.014Z,96724.34
2017-12-08T12:16:10.785Z,96739.27
2017-12-08T12:18:38.348Z,96755.58
2017-12-08T12:21:05.850Z,96769.16
2017-12-08T12:23:33.564Z,96779.90
2017-12-08T12:26:01.076Z,96799.16
2017-12-08T12:28:28.582Z,96824.95
2017-12-08T12:30:56.447Z,96825.92
2017-12-08T12:33:23.950Z,96843.19
2017-12-08T12:35:51.459Z,96845.63
2017-12-08T12:38:19.002Z,96859.11
2017-12-08T12:40:46.516Z,96861.56
2017-12-08T12:43:14.051Z,96856.45
2017-12-08T12:45:41.986Z,96859.58
2017-12-08T12:48:09.494Z,96855.45
2017-12-08T12:50:37.014Z,96850.50
2017-12-08T12:53:04.992Z,96851.09
2017-12-08T12:55:32.572Z,96829.63
2017-12-08T12:58:00.290Z,96830.76
2017-12-08T13:00:28.104Z,96843.24
2017-12-08T13:02:55.713Z,96835.67
2017-12-08T13:05:23.234Z,96827.41
2017-12-08T13:07:50.779Z,96835.98
2017-12-08T13:10:18.481Z,96837.16
2017-12-08T13:12:46.000Z,96829.87
2017-12-08T13:15:14.145Z,96834.80
2017-12-08T13:17:42.425Z,96828.04
2017-12-08T13:20:10.174Z,96836.50
2017-12-08T13:22:38.158Z,96829.09
2017-12-08T13:25:05.718Z,96837.41
2017-12-08T13:27:33.276Z,96827.91
2017-12-08T13:30:00.862Z,96841.75
2017-12-08T13:32:28.411Z,96845.28
2017-12-08T13:34:55.983Z,96846.00
2017-12-08T13:37:23.717Z,96855.41
2017-12-08T13:39:51.286Z,96863.19
2017-12-08T13:42:18.836Z,96858.95
2017-12-08T13:44:46.599Z,96862.00
2017-12-08T13:47:14.366Z,96865.77
2017-12-08T13:49:42.230Z,96865.75
2017-12-08T13:52:09.994Z,96864.38
2017-12-08T13:54:49.746Z,96866.63
2017-12-08T13:57:17.605Z,96856.84
2017-12-08T13:59:45.127Z,96865.34
2017-12-08T14:02:12.722Z,96866.55
2017-12-08T14:04:40.436Z,96873.32
2017-12-08T14:07:08.010Z,96880.54
2017-12-08T14:09:35.810Z,96873.09
2017-12-08T14:12:03.685Z,96884.48
2017-12-08T14:14:31.236Z,96888.61
2017-12-08T14:16:58.906Z,96874.49
2017-12-08T14:19:26.873Z,96881.64
2017-12-08T14:21:54.483Z,96868.53
2017-12-08T14:24:22.141Z,96880.05
2017-12-08T14:26:50.054Z,96874.33
2017-12-08T14:29:17.612Z,96874.16
2017-12-08T14:31:45.175Z,96864.81
2017-12-08T14:34:12.836Z,96868.57
2017-12-08T14:36:40.606Z,96876.15
2017-12-08T14:39:08.188Z,96873.94
2017-12-08T14:41:36.025Z,96878.80
2017-12-08T14:44:03.755Z,96878.95
2017-12-08T14:46:31.494Z,96890.25
2017-12-08T14:48:59.725Z,96887.76
2017-12-08T14:51:27.282Z,96877.66
2017-12-08T14:53:54.945Z,96885.91
2017-12-08T14:56:23.018Z,96885.58
2017-12-08T14:58:50.591Z,96888.59
2017-12-08T15:01:18.231Z,96886.14
2017-12-08T15:03:46.291Z,96886.69
2017-12-08T15:06:13.974Z,96887.56
2017-12-08T15:08:41.528Z,96874.20
2017-12-08T15:11:09.094Z,96881.15
2017-12-08T15:13:36.646Z,96883.39
2017-12-08T15:16:04.256Z,96887.89
2017-12-08T15:18:32.049Z,96881.17
2017-12-08T15:20:59.733Z,96886.52
2017-12-08T15:23:27.251Z,96875.66
2017-12-08T15:25:54.855Z,96888.05
2017-12-08T15:28:22.410Z,96895.02
2017-12-08T15:30:50.072Z,96889.23
2017-12-08T15:33:17.951Z,96895.73
2017-12-08T15:35:46.427Z,96889.00
2017-12-08T15:38:13.979Z,96884.52
2017-12-08T15:40:41.749Z,96886.68
2017-12-08T15:43:10.222Z,96880.92
2017-12-08T15:45:37.993Z,96876.67
2017-12-08T15:48:05.677Z,96872.42
2017-12-08T15:50:33.226Z,96870.79
2017-12-08T15:53:01.073Z,96870.59
2017-12-08T15:55:28.756Z,96868.21
2017-12-08T15:57:56.516Z,96859.89
2017-12-08T16:00:24.364Z,96865.21
2017-12-08T16:02:52.239Z,96860.95
2017-12-08T16:05:19.995Z,96855.35
2017-12-08T16:07:47.646Z,96862.45
2017-12-08T16:10:15.218Z,96870.79
2017-12-08T16:12:42.877Z,96868.45
2017-12-08T16:15:10.437Z,96875.51
2017-12-08T16:17:38.302Z,96865.91
2017-12-08T16:20:05.965Z,96866.66
2017-12-08T16:22:33.475Z,96862.28
2017-12-08T16:25:01.478Z,96856.32
2017-12-08T16:27:29.018Z,96857.66
2017-12-08T16:29:56.713Z,96855.11
2017-12-08T16:32:24.374Z,96860.37
2017-12-08T16:34:51.932Z,96872.66
2017-12-08T16:37:19.493Z,96868.75
2017-12-08T16:39:47.266Z,96878.97
2017-12-08T16:42:14.814Z,96879.51
2017-12-08T16:44:42.374Z,96893.52
2017-12-08T16:47:10.030Z,96895.69
2017-12-08T16:49:37.548Z,96903.66
2017-12-08T16:52:05.154Z,96907.23
2017-12-08T16:54:32.917Z,96913.71
2017-12-08T16:57:00.506Z,96916.55
2017-12-08T16:59:28.034Z,96913.63
2017-12-08T17:01:55.618Z,96915.03
2017-12-08T17:04:23.138Z,96910.73
2017-12-08T17:06:50.654Z,96916.55
2017-12-08T17:09:18.230Z,96919.15
2017-12-08T17:11:46.007Z,96913.64
2017-12-08T17:14:13.524Z,96909.45
2017-12-08T17:16:41.145Z,96910.48
2017-12-08T17:19:08.717Z,96902.56
2017-12-08T17:21:36.262Z,96913.38
2017-12-08T17:24:04.130Z,96914.78
2017-12-08T17:26:31.703Z,96923.23
2017-12-08T17:28:59.255Z,96924.95
2017-12-08T17:31:27.431Z,96919.85
2017-12-08T17:33:55.193Z,96921.66
2017-12-08T17:36:23.015Z,96934.59
2017-12-08T17:38:50.721Z,96941.88
2017-12-08T17:41:18.283Z,96942.06
2017-12-08T17:43:45.791Z,96948.16
2017-12-08T17:46:13.713Z,96953.17
2017-12-08T17:48:41.273Z,96952.12
2017-12-08T17:51:09.029Z,96959.67
2017-12-08T17:53:36.587Z,96959.78
2017-12-08T17:56:04.242Z,96969.06
2017-12-08T17:58:31.767Z,96968.73
2017-12-08T18:00:59.756Z,96965.47
2017-12-08T18:03:27.261Z,96959.55
2017-12-08T18:05:54.894Z,96960.80
2017-12-08T18:08:22.731Z,96956.55
2017-12-08T18:10:50.264Z,96957.16
2017-12-08T18:13:17.800Z,96964.44
2017-12-08T18:15:45.700Z,96958.11
2017-12-08T18:18:13.286Z,96964.97
2017-12-08T18:20:40.803Z,96966.19
2017-12-08T18:23:08.576Z,96979.77
2017-12-08T18:25:36.094Z,96969.45
2017-12-08T18:28:03.602Z,96973.31
2017-12-08T18:30:31.406Z,96972.67
2017-12-08T18:32:58.966Z,96969.98
2017-12-08T18:35:26.525Z,96963.77
2017-12-08T18:37:54.084Z,96963.19
2017-12-08T18:40:21.586Z,96964.26
2017-12-08T18:42:49.100Z,96969.88
2017-12-08T18:45:17.172Z,96972.94
2017-12-08T18:47:44.739Z,96962.43
2017-12-08T18:50:12.392Z,96970.82
2017-12-08T18:52:40.361Z,96969.18
2017-12-08T18:55:07.914Z,96967.13
2017-12-08T18:57:35.480Z,96970.14
2017-12-08T19:00:03.186Z,96967.52
2017-12-08T19:02:30.702Z,96960.46
2017-12-08T19:04:58.205Z,96962.59
2017-12-08T19:07:25.758Z,96944.83
2017-12-08T19:09:53.293Z,96945.74
2017-12-08T19:12:20.850Z,96945.19
2017-12-08T19:14:48.495Z,96941.55
2017-12-08T19:17:16.002Z,96946.55
2017-12-08T19:19:43.522Z,96943.64
2017-12-08T19:22:11.947Z,96945.84
2017-12-08T19:24:39.474Z,96944.47
2017-12-08T19:27:07.122Z,96937.65
2017-12-08T19:29:34.873Z,96933.52
2017-12-08T19:32:02.431Z,96936.70
2017-12-08T19:34:29.992Z,96939.69
2017-12-08T19:36:57.742Z,96947.45
2017-12-08T19:39:25.519Z,96947.45
2017-12-08T19:41:53.119Z,96948.44
2017-12-08T19:44:20.668Z,96954.29
2017-12-08T19:46:48.194Z,96957.42
2017-12-08T19:49:15.928Z,96959.09
2017-12-08T19:51:43.897Z,96962.26
2017-12-08T19:54:11.760Z,96959.25
2017-12-08T19:56:39.354Z,96966.22
2017-12-08T19:59:07.118Z,96961.09
2017-12-08T20:01:34.779Z,96957.55
2017-12-08T20:04:02.338Z,96958.64
2017-12-08T20:06:30.410Z,96970.06
2017-12-08T20:08:58.071Z,96976.41
2017-12-08T20:11:25.938Z,96973.61
2017-12-08T20:13:53.723Z,96983.88
2017-12-08T20:16:21.479Z,96972.03
2017-12-08T20:18:49.298Z,96968.92
2017-12-08T20:21:17.506Z,96963.01
2017-12-08T20:23:45.964Z,96967.52
2017-12-08T20:26:13.546Z,96964.18
2017-12-08T20:28:41.525Z,96974.69
2017-12-08T20:31:09.379Z,96981.62
2017-12-08T20:33:37.143Z,96989.88
2017-12-08T20:36:05.009Z,96978.17
2017-12-08T20:38:32.671Z,96983.14
2017-12-08T20:41:00.230Z,96985.08
2017-12-08T20:43:27.945Z,96993.89
2017-12-08T20:45:55.655Z,96988.80
2017-12-08T20:48:23.215Z,96991.67
2017-12-08T20:50:51.592Z,96986.82
2017-12-08T20:53:19.459Z,96987.00
2017-12-08T20:55:47.325Z,96984.28
2017-12-08T20:58:15.089Z,96989.77
2017-12-08T21:00:42.931Z,96993.98
2017-12-08T21:03:10.617Z,96992.09
2017-12-08T21:05:39.102Z,96990.49
2017-12-08T21:08:06.880Z,96991.78
2017-12-08T21:10:34.634Z,96994.70
2017-12-08T21:13:03.005Z,96998.80
2017-12-08T21:15:32.612Z,96995.38
2017-12-08T21:18:00.376Z,97001.22
2017-12-08T21:20:28.240Z,96999.62
2017-12-08T21:22:56.020Z,96992.11
2017-12-08T21:25:23.666Z,97000.52
2017-12-08T21:27:51.432Z,96997.64
2017-12-08T21:30:20.386Z,97005.11
2017-12-08T21:32:47.976Z,97004.86
2017-12-08T21:35:15.650Z,96996.41
2017-12-08T21:37:43.206Z,97004.09
2017-12-08T21:40:10.905Z,96998.16
2017-12-08T21:42:38.950Z,97008.16
2017-12-08T21:45:06.802Z,96998.08
2017-12-08T21:47:34.472Z,96999.22
2017-12-08T21:50:02.231Z,96998.80
2017-12-08T21:52:29.842Z,96987.58
2017-12-08T21:54:57.652Z,96988.33
2017-12-08T21:57:25.237Z,96983.33
2017-12-08T21:59:53.042Z,96984.20
2017-12-08T22:02:20.796Z,96988.41
2017-12-08T22:04:48.706Z,96996.52
2017-12-08T22:07:16.368Z,96990.98
2017-12-08T22:09:44.020Z,96993.88
2017-12-08T22:12:11.602Z,96995.47
2017-12-08T22:14:39.148Z,96993.04
2017-12-08T22:17:06.800Z,97000.27
2017-12-08T22:19:34.641Z,97001.41
2017-12-08T22:22:02.345Z,97012.33
2017-12-08T22:24:30.094Z,97013.88
2017-12-08T22:26:57.865Z,96999.96
2017-12-08T22:29:25.630Z,97010.63
2017-12-08T22:31:53.142Z,97011.11
2017-12-08T22:34:21.056Z,96999.30
2017-12-08T22:36:48.614Z,97015.27
2017-12-08T22:39:16.130Z,97014.92
2017-12-08T22:41:44.125Z,97011.88
2017-12-08T22:44:11.921Z,97007.39
2017-12-08T22:46:39.671Z,97012.59
2017-12-08T22:49:07.433Z,97003.43
2017-12-08T22:51:35.089Z,97001.05
2017-12-08T22:54:02.615Z,97004.59
2017-12-08T22:56:30.497Z,97010.57
2017-12-08T22:58:58.023Z,97008.78
2017-12-08T23:01:25.525Z,97008.18
2017-12-08T23:03:53.278Z,97021.61
2017-12-08T23:06:20.786Z,97019.81
2017-12-08T23:08:48.418Z,97024.08
2017-12-08T23:11:15.954Z,97026.66
2017-12-08T23:13:43.478Z,97022.84
2017-12-08T23:16:10.991Z,97023.20
2017-12-08T23:18:38.961Z,97017.40
2017-12-08T23:21:06.476Z,97026.91
2017-12-08T23:23:34.063Z,97021.20
2017-12-08T23:26:01.947Z,97026.22
2017-12-08T23:28:29.524Z,97032.73
2017-12-08T23:30:57.039Z,97031.91
2017-12-08T23:33:24.746Z,97033.67
2017-12-08T23:35:52.276Z,97040.69
2017-12-08T23:38:19.780Z,97034.16
2017-12-08T23:40:47.339Z,97036.11
2017-12-08T23:43:14.870Z,97043.64
2017-12-08T23:45:42.417Z,97038.75
2017-12-08T23:48:09.976Z,97038.31
2017-12-08T23:50:37.477Z,97035.30
2017-12-08T23:53:04.982Z,97039.33
2017-12-08T23:55:32.550Z,97027.41
2017-12-08T23:58:00.066Z,97034.36
